^^
Station Historical Data
 
Daily Summary for March 25, 2019 Units:  English    Metric   Both
« Previous Day
Next Day »
Daily Weekly Monthly Yearly Custom
  Current: High: Low: Average:
Temperature: 42.3 °F TemperatureF °F 22.3 °F 29.2 °F
Dew Point: 25.3 °F DewpointF °F 19.4 °F 23.5 °F
Humidity: 51 % Humidity % 46 % 80 %
Wind Speed: 16.1 mph WindSpeedMPH mph 0.0 mph 4.6 mph
Wind Gust: 20.0 mph WindSpeedGustMPH mph - -
Wind:ENE - - South
Pressure: 30.42 in PressureIn in 30.37 in -
Precipitation: 0.00 in      
Historical Graphs
 
 
Tabular Data for March 25, 2019
Time Temperature Dew Point Pressure Wind Wind Speed Wind Gust Humidity Rainfall Rate (Hourly)
TemperatureF °F DewpointF °F PressureIn in Calm     Humidity % HourlyPrecipIn in
00:04 27.3 °F 25.9 °F 30.37 in SSE 11.0 mph 13.0 mph 94 % 0.00 in
00:09 28.0 °F 26.2 °F 30.38 in SW 2.9 mph 7.0 mph 93 % 0.00 in
00:14 27.7 °F 25.7 °F 30.38 in SSW 10.1 mph 10.0 mph 92 % 0.00 in
00:19 27.9 °F 25.9 °F 30.38 in SSE 2.0 mph 9.0 mph 92 % 0.00 in
00:24 27.7 °F 25.7 °F 30.38 in SW 4.9 mph 10.0 mph 92 % 0.00 in
00:29 27.3 °F 25.3 °F 30.38 in WSW 4.0 mph 10.0 mph 92 % 0.00 in
00:34 27.1 °F 25.2 °F 30.38 in SW 4.0 mph 6.0 mph 92 % 0.00 in
00:39 27.3 °F 25.3 °F 30.38 in SE 4.0 mph 7.0 mph 92 % 0.00 in
00:44 27.5 °F 25.5 °F 30.38 in Calm   5.0 mph 92 % 0.00 in
00:49 27.3 °F 25.0 °F 30.38 in Calm     91 % 0.00 in
00:54 27.3 °F 25.3 °F 30.38 in WSW 2.9 mph 4.0 mph 92 % 0.00 in
00:59 27.1 °F 25.2 °F 30.38 in SSW 2.0 mph 7.0 mph 92 % 0.00 in
01:04 27.1 °F 25.2 °F 30.39 in SSW 2.0 mph 9.0 mph 92 % 0.00 in
01:09 27.0 °F 25.0 °F 30.39 in SSE 2.0 mph 5.0 mph 92 % 0.00 in
01:14 26.8 °F 24.8 °F 30.39 in SSW 4.9 mph 5.0 mph 92 % 0.00 in
01:19 26.6 °F 24.8 °F 30.39 in SSE 4.0 mph 4.0 mph 93 % 0.00 in
01:24 26.8 °F 25.0 °F 30.39 in SW 2.0 mph 2.0 mph 93 % 0.00 in
01:29 26.6 °F 24.6 °F 30.39 in SW 0.9 mph 8.0 mph 92 % 0.00 in
01:34 26.6 °F 24.8 °F 30.39 in SSW 4.0 mph 9.0 mph 93 % 0.00 in
01:39 26.4 °F 24.6 °F 30.39 in South 4.9 mph 7.0 mph 93 % 0.00 in
01:44 26.6 °F 24.8 °F 30.39 in SW 2.9 mph 7.0 mph 93 % 0.00 in
01:49 26.4 °F 24.4 °F 30.39 in SSW 8.1 mph 11.0 mph 92 % 0.00 in
01:54 26.2 °F 24.3 °F 30.39 in West 4.0 mph 7.0 mph 92 % 0.00 in
01:59 26.2 °F 24.3 °F 30.39 in SW 4.0 mph 4.0 mph 92 % 0.00 in
02:04 26.2 °F 24.3 °F 30.40 in Calm   3.0 mph 92 % 0.00 in
02:09 25.9 °F 24.1 °F 30.40 in SW 2.9 mph 9.0 mph 93 % 0.00 in
02:14 25.9 °F 24.1 °F 30.40 in SW 8.1 mph 11.0 mph 93 % 0.00 in
02:19 26.4 °F 24.4 °F 30.39 in SSE 2.0 mph 8.0 mph 92 % 0.00 in
02:24 26.2 °F 23.9 °F 30.40 in SSE 8.1 mph 11.0 mph 91 % 0.00 in
02:29 26.4 °F 24.1 °F 30.39 in ESE 6.9 mph 10.0 mph 91 % 0.00 in
02:34 26.2 °F 23.9 °F 30.40 in SW 6.0 mph 7.0 mph 91 % 0.00 in
02:39 26.1 °F 23.7 °F 30.39 in SSE 10.1 mph 13.0 mph 91 % 0.00 in
02:44 26.1 °F 23.7 °F 30.39 in SW 4.0 mph 9.0 mph 91 % 0.00 in
02:49 26.1 °F 23.7 °F 30.39 in SSE 2.9 mph 9.0 mph 91 % 0.00 in
02:54 25.7 °F 23.4 °F 30.39 in Calm     91 % 0.00 in
02:59 25.3 °F 23.4 °F 30.38 in WNW 2.0 mph 3.0 mph 92 % 0.00 in
03:04 25.0 °F 23.2 °F 30.39 in Calm   4.0 mph 93 % 0.00 in
03:09 25.9 °F 23.9 °F 30.39 in West 2.0 mph 4.0 mph 92 % 0.00 in
03:14 25.7 °F 23.7 °F 30.39 in WSW 2.0 mph 4.0 mph 92 % 0.00 in
03:19 25.0 °F 23.0 °F 30.39 in South 4.9 mph 8.0 mph 92 % 0.00 in
03:24 25.9 °F 24.1 °F 30.39 in SSE 2.0 mph 4.0 mph 93 % 0.00 in
03:29 26.8 °F 24.3 °F 30.39 in Calm   2.0 mph 90 % 0.00 in
03:34 26.4 °F 23.9 °F 30.39 in NE 0.9 mph 8.0 mph 90 % 0.00 in
03:39 25.5 °F 23.0 °F 30.39 in SW 6.0 mph 10.0 mph 90 % 0.00 in
03:44 25.3 °F 23.4 °F 30.39 in South 4.9 mph 6.0 mph 92 % 0.00 in
03:49 25.5 °F 23.2 °F 30.39 in West 2.0 mph 9.0 mph 91 % 0.00 in
03:54 25.3 °F 23.4 °F 30.39 in South 8.1 mph 8.0 mph 92 % 0.00 in
03:59 25.3 °F 23.4 °F 30.39 in SSW 8.9 mph 11.0 mph 92 % 0.00 in
04:04 25.5 °F 23.0 °F 30.39 in SSE 10.1 mph 10.0 mph 90 % 0.00 in
04:09 25.0 °F 22.6 °F 30.39 in SSE 8.9 mph 9.0 mph 91 % 0.00 in
04:14 25.2 °F 22.8 °F 30.39 in SW 2.0 mph 11.0 mph 91 % 0.00 in
04:19 24.8 °F 22.5 °F 30.39 in South 8.1 mph 10.0 mph 91 % 0.00 in
04:24 25.0 °F 22.6 °F 30.40 in SW 4.9 mph 8.0 mph 91 % 0.00 in
04:29 24.6 °F 22.5 °F 30.40 in SSE 12.1 mph 12.0 mph 91 % 0.00 in
04:34 24.6 °F 22.1 °F 30.40 in ESE 8.1 mph 10.0 mph 90 % 0.00 in
04:39 25.0 °F 22.5 °F 30.39 in SSW 8.1 mph 11.0 mph 90 % 0.00 in
04:44 25.0 °F 22.3 °F 30.40 in WSW 4.0 mph 7.0 mph 89 % 0.00 in
04:49 25.2 °F 22.5 °F 30.40 in SSE 8.1 mph 9.0 mph 89 % 0.00 in
04:54 24.8 °F 22.1 °F 30.40 in Calm   3.0 mph 89 % 0.00 in
04:59 24.6 °F 21.9 °F 30.40 in SW 6.0 mph 8.0 mph 89 % 0.00 in
05:04 24.6 °F 21.6 °F 30.40 in West 0.9 mph 2.0 mph 88 % 0.00 in
05:09 24.3 °F 21.6 °F 30.40 in South 0.9 mph 3.0 mph 89 % 0.00 in
05:14 24.6 °F 21.9 °F 30.40 in SW 6.0 mph 8.0 mph 89 % 0.00 in
05:19 24.6 °F 21.6 °F 30.40 in South 0.9 mph 6.0 mph 88 % 0.00 in
05:24 24.6 °F 21.6 °F 30.40 in South 4.9 mph 12.0 mph 88 % 0.00 in
05:29 24.4 °F 21.4 °F 30.40 in SW 8.9 mph 9.0 mph 88 % 0.00 in
05:34 24.6 °F 21.4 °F 30.40 in SSE 2.9 mph 12.0 mph 87 % 0.00 in
05:39 24.6 °F 21.0 °F 30.40 in SE 2.9 mph 6.0 mph 86 % 0.00 in
05:44 24.4 °F 20.8 °F 30.40 in SSE 6.0 mph 8.0 mph 86 % 0.00 in
05:49 24.3 °F 21.0 °F 30.40 in South 6.0 mph 10.0 mph 87 % 0.00 in
05:54 24.3 °F 20.7 °F 30.40 in SSW 8.9 mph 10.0 mph 86 % 0.00 in
05:59 24.3 °F 20.7 °F 30.40 in SW 2.0 mph 9.0 mph 86 % 0.00 in
06:04 23.5 °F 20.3 °F 30.39 in SW 11.0 mph 14.0 mph 87 % 0.00 in
06:09 23.5 °F 20.3 °F 30.39 in SSE 8.9 mph 12.0 mph 87 % 0.00 in
06:14 23.2 °F 20.1 °F 30.39 in South 10.1 mph 14.0 mph 88 % 0.00 in
06:19 23.0 °F 19.9 °F 30.39 in SW 8.1 mph 11.0 mph 88 % 0.00 in
06:24 23.2 °F 20.1 °F 30.39 in SSW 10.1 mph 11.0 mph 88 % 0.00 in
06:29 23.5 °F 20.3 °F 30.40 in South 6.0 mph 11.0 mph 87 % 0.00 in
06:34 22.6 °F 19.6 °F 30.40 in SW 4.9 mph 7.0 mph 88 % 0.00 in
06:39 22.6 °F 19.9 °F 30.40 in Calm   6.0 mph 89 % 0.00 in
06:44 22.8 °F 19.6 °F 30.40 in SSW 2.0 mph 4.0 mph 87 % 0.00 in
06:49 22.5 °F 19.4 °F 30.41 in Calm   4.0 mph 88 % 0.00 in
06:54 22.3 °F 19.6 °F 30.41 in SW 0.9 mph 7.0 mph 89 % 0.00 in
06:58 22.3 °F 19.6 °F 30.41 in SSE 4.0 mph 7.0 mph 89 % 0.00 in
07:03 22.3 °F 19.6 °F 30.42 in SW 9.0 mph 9.0 mph 89 % 0.00 in
07:08 22.6 °F 19.9 °F 30.41 in South 8.9 mph 10.0 mph 89 % 0.00 in
07:13 23.4 °F 20.1 °F 30.42 in WSW 4.0 mph 7.0 mph 87 % 0.00 in
07:17 23.5 °F 19.9 °F 30.42 in WSW 2.0 mph 9.0 mph 86 % 0.00 in
07:22 24.3 °F 20.1 °F 30.42 in SW 6.0 mph 7.0 mph 84 % 0.00 in
07:27 24.8 °F 20.7 °F 30.42 in SE 8.1 mph 12.0 mph 84 % 0.00 in
07:31 25.0 °F 20.5 °F 30.42 in Calm   5.0 mph 83 % 0.00 in
07:36 25.3 °F 20.7 °F 30.42 in WSW 2.9 mph 5.0 mph 82 % 0.00 in
07:41 25.2 °F 20.7 °F 30.43 in SW 2.0 mph 6.0 mph 83 % 0.00 in
07:46 26.2 °F 21.6 °F 30.42 in SE 2.9 mph 5.0 mph 82 % 0.00 in
07:50 27.0 °F 21.6 °F 30.42 in SE 4.0 mph 11.0 mph 80 % 0.00 in
07:55 26.2 °F 21.2 °F 30.42 in South 4.0 mph 8.0 mph 81 % 0.00 in
07:59 27.0 °F 21.9 °F 30.42 in SSE 6.0 mph 9.0 mph 81 % 0.00 in
08:04 28.2 °F 22.6 °F 30.43 in Calm     79 % 0.00 in
08:08 28.6 °F 22.6 °F 30.42 in SSW 6.0 mph 8.0 mph 78 % 0.00 in
08:14 28.6 °F 22.8 °F 30.42 in SE 4.9 mph 6.0 mph 79 % 0.00 in
08:18 28.8 °F 22.8 °F 30.42 in South 4.0 mph 7.0 mph 78 % 0.00 in
08:23 28.2 °F 21.9 °F 30.43 in SSW 6.9 mph 8.0 mph 77 % 0.00 in
08:28 28.6 °F 22.6 °F 30.42 in SE 8.1 mph 10.0 mph 78 % 0.00 in
08:32 28.9 °F 22.3 °F 30.43 in South 8.1 mph 10.0 mph 76 % 0.00 in
08:37 29.3 °F 22.3 °F 30.43 in SE 4.0 mph 12.0 mph 75 % 0.00 in
08:42 29.7 °F 23.0 °F 30.43 in WSW 2.0 mph 8.0 mph 76 % 0.00 in
08:47 29.8 °F 22.8 °F 30.44 in SSW 0.9 mph 10.0 mph 75 % 0.00 in
08:51 30.7 °F 23.7 °F 30.43 in Calm   2.0 mph 75 % 0.00 in
08:55 31.8 °F 23.9 °F 30.44 in Calm   2.0 mph 72 % 0.00 in
09:00 32.5 °F 24.8 °F 30.44 in Calm   1.0 mph 73 % 0.00 in
09:06 34.2 °F 27.7 °F 30.44 in Calm     77 % 0.00 in
09:10 34.7 °F 25.9 °F 30.44 in WSW 2.0 mph 2.0 mph 70 % 0.00 in
09:15 35.2 °F 27.5 °F 30.44 in ENE 2.0 mph 3.0 mph 73 % 0.00 in
09:19 36.1 °F 28.9 °F 30.44 in Calm   2.0 mph 75 % 0.00 in
09:24 36.9 °F 28.0 °F 30.43 in Calm     70 % 0.00 in
09:28 37.2 °F 28.0 °F 30.43 in Calm   1.0 mph 69 % 0.00 in
09:34 38.1 °F 30.6 °F 30.42 in Calm   3.0 mph 74 % 0.00 in
09:38 39.0 °F 29.7 °F 30.43 in Calm   2.0 mph 69 % 0.00 in
09:43 38.1 °F 27.9 °F 30.43 in Calm   2.0 mph 66 % 0.00 in
09:47 38.1 °F 27.9 °F 30.42 in Calm     66 % 0.00 in
09:52 38.8 °F 28.0 °F 30.42 in Calm   4.0 mph 65 % 0.00 in
09:56 40.3 °F 29.1 °F 30.42 in Calm   6.0 mph 64 % 0.00 in
10:01 40.6 °F 28.2 °F 30.42 in NE 4.0 mph 7.0 mph 61 % 0.00 in
10:05 40.8 °F 28.4 °F 30.42 in NE 4.9 mph 8.0 mph 61 % 0.00 in
10:10 41.2 °F 28.4 °F 30.42 in NNE 6.0 mph 6.0 mph 60 % 0.00 in
10:14 41.9 °F 28.9 °F 30.42 in ENE 6.0 mph 6.0 mph 60 % 0.00 in
10:19 42.6 °F 26.2 °F 30.42 in NNW 2.9 mph 10.0 mph 52 % 0.00 in
10:24 42.3 °F 25.3 °F 30.42 in ENE 8.9 mph 13.0 mph 51 % 0.00 in
10:29 42.8 °F 26.4 °F 30.42 in ENE 6.0 mph 14.0 mph 52 % 0.00 in
10:33 42.6 °F 24.8 °F 30.42 in ENE 11.0 mph 16.0 mph 49 % 0.00 in
10:38 42.3 °F 24.4 °F 30.42 in ENE 11.0 mph 14.0 mph 49 % 0.00 in
10:43 42.4 °F 25.5 °F 30.42 in NE 4.0 mph 6.0 mph 51 % 0.00 in
10:47 43.2 °F 25.7 °F 30.41 in NE 6.9 mph 11.0 mph 50 % 0.00 in
10:52 43.0 °F 25.7 °F 30.42 in NE 11.0 mph 11.0 mph 50 % 0.00 in
10:56 43.2 °F 25.3 °F 30.41 in ENE 13.0 mph 15.0 mph 49 % 0.00 in
11:01 43.0 °F 24.6 °F 30.42 in NE 4.0 mph 10.0 mph 48 % 0.00 in
11:05 43.3 °F 25.0 °F 30.42 in NE 6.9 mph 15.0 mph 48 % 0.00 in
11:10 43.7 °F 24.3 °F 30.42 in NE 10.1 mph 16.0 mph 46 % 0.00 in
11:14 43.9 °F 25.5 °F 30.42 in ENE 6.9 mph 9.0 mph 48 % 0.00 in
11:19 43.9 °F 25.5 °F 30.42 in NE 2.0 mph 7.0 mph 48 % 0.00 in
11:24 44.2 °F 25.3 °F 30.42 in NE 4.0 mph 13.0 mph 47 % 0.00 in
11:29 44.1 °F 25.2 °F 30.42 in NE 8.9 mph 14.0 mph 47 % 0.00 in
11:33 43.7 °F 26.2 °F 30.42 in ENE 14.1 mph 18.0 mph 50 % 0.00 in
11:38 42.3 °F 25.3 °F 30.42 in ENE 16.1 mph 20.0 mph 51 % 0.00 in
Evergreen Colorado, USA
Compliments of Weather Underground - 2.75 mb